Time;durP1;ratioP1;P1;durP2;ratioP2;P2;SDS_P1;SDS_P2;PMS_P1;PMS_P2;Temp;Humidity;BMP_temperature;BMP_pressure;BME280_temperature;BME280_humidity;BME280_pressure;Samples;Min_cycle;Max_cycle;Signal;HPM_P1;HPM_P2
2023/04/16 00:01:27;;;;;;;;;;;;;;;6.36;84.22;101955.31;5068112;28;19980;-74
2023/04/16 00:03:53;;;;;;;;;;;;;;;6.29;84.38;101962.50;5070049;28;19938;-75
2023/04/16 00:06:19;;;;;;;;;;;;;;;6.31;84.57;101957.81;5048990;28;19952;-73
2023/04/16 00:08:45;;;;;;;;;;;;;;;5.99;85.37;101960.38;5073635;28;19958;-73
2023/04/16 00:11:11;;;;;;;;;;;;;;;6.04;85.47;101957.09;5054906;28;19934;-75
2023/04/16 00:13:37;;;;;;;;;;;;;;;5.94;86.14;101957.53;5089346;28;19936;-73
2023/04/16 00:16:02;;;;;;;;;;;;;;;5.80;86.13;101955.06;5088670;28;20022;-74
2023/04/16 00:18:28;;;;;;;;;;;;;;;5.79;86.38;101956.09;5082151;28;20442;-75
2023/04/16 00:20:54;;;;;;;;;;;;;;;5.90;85.99;101960.78;5054727;28;20407;-74
2023/04/16 00:23:20;;;;;;;;;;;;;;;5.67;86.31;101954.06;5102875;28;19943;-74
2023/04/16 00:25:46;;;;;;;;;;;;;;;5.74;86.49;101954.06;5087289;28;19948;-73
2023/04/16 00:28:12;;;;;;;;;;;;;;;5.62;86.75;101956.56;5066884;28;19983;-74
2023/04/16 00:30:38;;;;;;;;;;;;;;;5.47;87.11;101958.59;5080902;28;20008;-73
2023/04/16 00:33:04;;;;;;;;;;;;;;;5.58;87.05;101954.50;5069369;28;19954;-74
2023/04/16 00:35:30;;;;;;;;;;;;;;;5.38;87.46;101957.19;5068069;28;20049;-74
2023/04/16 00:37:56;;;;;;;;;;;;;;;5.35;87.79;101957.56;5101443;28;20352;-75
2023/04/16 00:40:22;;;;;;;;;;;;;;;5.37;87.42;101952.91;5068308;28;19981;-75
2023/04/16 00:42:48;;;;;;;;;;;;;;;5.35;87.72;101952.25;5068561;28;19930;-77
2023/04/16 00:45:15;;;;;;;;;;;;;;;5.40;87.65;101961.25;5053955;28;19960;-75
2023/04/16 00:47:41;;;;;;;;;;;;;;;5.36;87.33;101953.94;5085926;28;19943;-74
2023/04/16 00:50:06;;;;;;;;;;;;;;;5.41;86.96;101956.75;5072897;28;19946;-74
2023/04/16 00:52:33;;;;;;;;;;;;;;;5.36;87.42;101959.25;5052671;28;20186;-74
2023/04/16 00:54:59;;;;;;;;;;;;;;;5.46;87.02;101951.66;5094668;28;19952;-74
2023/04/16 00:57:25;;;;;;;;;;;;;;;5.29;86.97;101956.59;5068253;28;19930;-74
2023/04/16 00:59:51;;;;;;;;;;;;;;;5.26;86.96;101962.28;5068833;28;19956;-75
2023/04/16 01:02:17;;;;;;;;;;;;;;;5.13;87.33;101954.31;5068298;28;20289;-75
2023/04/16 01:04:42;;;;;;;;;;;;;;;5.29;87.15;101958.44;5071122;28;19950;-74
2023/04/16 01:07:08;;;;;;;;;;;;;;;5.26;87.38;101964.94;5076290;28;20434;-74
2023/04/16 01:09:34;;;;;;;;;;;;;;;5.51;86.50;101965.16;5070606;28;20375;-75
2023/04/16 01:12:02;;;;;;;;;;;;;;;5.27;86.94;101963.09;5081201;28;19984;-75
2023/04/16 01:14:28;;;;;;;;;;;;;;;5.25;86.90;101967.81;5082834;28;19938;-74
2023/04/16 01:16:53;;;;;;;;;;;;;;;5.07;87.36;101977.19;5072794;28;20371;-74
2023/04/16 01:19:19;;;;;;;;;;;;;;;5.03;87.47;101967.19;5068940;28;20302;-74
2023/04/16 01:21:45;;;;;;;;;;;;;;;4.95;87.96;101972.69;5104238;28;19999;-74
2023/04/16 01:24:11;;;;;;;;;;;;;;;4.92;88.00;101977.38;5071107;28;19934;-74
2023/04/16 01:26:38;;;;;;;;;;;;;;;4.87;87.70;101985.13;5070390;28;19939;-73
2023/04/16 01:29:05;;;;;;;;;;;;;;;5.01;88.06;101980.63;5071072;28;19960;-74
2023/04/16 01:31:31;;;;;;;;;;;;;;;4.99;87.86;101980.03;5085540;28;19983;-73
2023/04/16 01:34:03;;;;;;;;;;;;;;;5.04;87.89;101988.22;5051374;28;19988;-73
2023/04/16 01:36:29;;;;;;;;;;;;;;;5.02;87.77;101984.97;5089573;28;20453;-73
2023/04/16 01:38:55;;;;;;;;;;;;;;;5.02;87.45;101995.56;5072438;28;19937;-74
2023/04/16 01:41:20;;;;;;;;;;;;;;;5.22;86.98;101994.78;5101796;28;20461;-73
2023/04/16 01:43:46;;;;;;;;;;;;;;;5.13;87.25;101991.50;5070145;28;19942;-74
2023/04/16 01:46:26;;;;;;;;;;;;;;;5.16;87.04;101997.22;5084330;28;19960;-73
2023/04/16 01:48:53;;;;;;;;;;;;;;;5.03;87.34;101997.22;5082204;28;19954;-73
2023/04/16 01:51:19;;;;;;;;;;;;;;;4.97;87.31;101986.56;5069012;28;19932;-74
2023/04/16 01:53:45;;;;;;;;;;;;;;;5.15;86.82;101998.25;5053914;28;19938;-76
2023/04/16 01:56:10;;;;;;;;;;;;;;;5.03;86.98;101994.56;5073084;28;20056;-74
2023/04/16 01:58:36;;;;;;;;;;;;;;;5.06;87.34;102001.28;5052297;28;20103;-75
2023/04/16 02:01:02;;;;;;;;;;;;;;;5.07;87.07;101995.78;5070492;28;19932;-76
2023/04/16 02:03:28;;;;;;;;;;;;;;;5.04;87.17;101998.84;5104105;28;20335;-76
2023/04/16 02:05:53;;;;;;;;;;;;;;;5.04;87.10;102009.47;5074010;28;20058;-72
2023/04/16 02:08:19;;;;;;;;;;;;;;;5.03;87.34;102012.31;5070429;28;19934;-74
2023/04/16 02:10:46;;;;;;;;;;;;;;;4.96;87.16;102009.66;5057122;28;20614;-75
2023/04/16 02:13:12;;;;;;;;;;;;;;;4.96;87.26;102028.25;5088605;28;19938;-73
2023/04/16 02:15:38;;;;;;;;;;;;;;;4.91;87.31;102028.84;5088959;28;19957;-73
2023/04/16 02:18:04;;;;;;;;;;;;;;;5.05;87.10;102019.06;5085307;28;20405;-75
2023/04/16 02:20:30;;;;;;;;;;;;;;;5.21;86.74;102020.50;5054415;28;19943;-74
2023/04/16 02:22:58;;;;;;;;;;;;;;;5.03;86.69;102025.59;5085832;28;20019;-75
2023/04/16 02:25:27;;;;;;;;;;;;;;;5.10;86.50;102019.28;5086034;28;19949;-74
2023/04/16 02:27:55;;;;;;;;;;;;;;;5.24;86.26;102014.81;5073284;28;19933;-75
2023/04/16 02:30:30;;;;;;;;;;;;;;;5.14;86.12;102017.03;5070323;28;19957;-75
2023/04/16 02:32:55;;;;;;;;;;;;;;;5.03;86.51;102022.94;5067002;28;19962;-74
2023/04/16 02:35:21;;;;;;;;;;;;;;;4.98;86.53;102020.06;5066049;28;19956;-74
2023/04/16 02:37:47;;;;;;;;;;;;;;;4.99;86.82;102016.38;5071647;28;19938;-74
2023/04/16 02:40:13;;;;;;;;;;;;;;;4.95;87.04;102021.31;5083229;28;19936;-75
2023/04/16 02:42:39;;;;;;;;;;;;;;;4.95;86.99;102021.31;5102474;28;20308;-74
2023/04/16 02:45:06;;;;;;;;;;;;;;;5.02;86.56;102019.47;5071451;28;20409;-74
2023/04/16 02:47:32;;;;;;;;;;;;;;;5.24;86.48;102013.97;5065335;28;19969;-75
2023/04/16 02:49:58;;;;;;;;;;;;;;;5.18;86.18;102021.75;5066981;28;19991;-75
2023/04/16 02:52:24;;;;;;;;;;;;;;;5.19;86.39;102020.72;5080297;28;19959;-75
2023/04/16 02:54:49;;;;;;;;;;;;;;;5.19;86.05;102026.03;5072143;28;20442;-76
2023/04/16 02:57:14;;;;;;;;;;;;;;;5.12;86.06;102022.53;5070042;28;19943;-74
2023/04/16 02:59:40;;;;;;;;;;;;;;;5.08;86.58;102023.97;5084712;28;19945;-73
2023/04/16 03:02:06;;;;;;;;;;;;;;;5.08;86.31;102029.28;5071337;28;19989;-75
2023/04/16 03:04:32;;;;;;;;;;;;;;;5.12;86.63;102027.03;5088734;28;20383;-72
2023/04/16 03:06:57;;;;;;;;;;;;;;;5.19;86.55;102028.69;5070423;28;19944;-74
2023/04/16 03:09:23;;;;;;;;;;;;;;;5.17;86.78;102022.75;5098071;28;20432;-76
2023/04/16 03:11:48;;;;;;;;;;;;;;;5.34;86.36;102030.31;5067325;28;20008;-75
2023/04/16 03:14:14;;;;;;;;;;;;;;;5.40;86.11;102026.84;5082672;28;20444;-75
2023/04/16 03:16:40;;;;;;;;;;;;;;;5.52;85.51;102032.38;5071212;28;19941;-75
2023/04/16 03:19:05;;;;;;;;;;;;;;;5.68;85.08;102035.44;5051844;28;19937;-75
2023/04/16 03:21:32;;;;;;;;;;;;;;;5.74;85.03;102034.63;5051077;28;19987;-75
2023/04/16 03:23:57;;;;;;;;;;;;;;;5.79;84.79;102035.84;5082886;28;19935;-75
2023/04/16 03:26:23;;;;;;;;;;;;;;;5.73;85.06;102030.34;5066875;28;19960;-74
2023/04/16 03:28:49;;;;;;;;;;;;;;;5.87;84.31;102033.78;5067402;28;19953;-74
2023/04/16 03:31:15;;;;;;;;;;;;;;;5.88;84.75;102038.09;5067139;28;19967;-73
2023/04/16 03:33:41;;;;;;;;;;;;;;;5.90;84.61;102035.25;5071508;28;19969;-75
2023/04/16 03:36:07;;;;;;;;;;;;;;;5.88;85.08;102042.59;5091968;28;20008;-74
2023/04/16 03:38:32;;;;;;;;;;;;;;;5.91;85.04;102036.91;5083641;28;19995;-75
2023/04/16 03:40:58;;;;;;;;;;;;;;;5.95;84.77;102035.44;5084074;28;19957;-73
2023/04/16 03:43:25;;;;;;;;;;;;;;;6.04;84.75;102036.88;5070085;28;19931;-73
2023/04/16 03:45:51;;;;;;;;;;;;;;;6.13;84.11;102037.47;5054305;28;20330;-73
2023/04/16 03:48:21;;;;;;;;;;;;;;;6.20;84.19;102041.75;5068494;28;19939;-74
2023/04/16 03:50:47;;;;;;;;;;;;;;;6.28;83.48;102038.84;5068058;28;19935;-74
2023/04/16 03:53:14;;;;;;;;;;;;;;;6.32;83.44;102033.13;5075565;28;19938;-74
2023/04/16 03:55:43;;;;;;;;;;;;;;;6.33;83.82;102035.56;5071795;28;20437;-74
2023/04/16 03:58:08;;;;;;;;;;;;;;;6.24;83.97;102032.34;5068030;28;19945;-75
2023/04/16 04:00:34;;;;;;;;;;;;;;;6.27;83.66;102037.22;5107416;28;20235;-74
2023/04/16 04:03:06;;;;;;;;;;;;;;;6.24;84.14;102042.97;5056055;28;19937;-74
2023/04/16 04:05:39;;;;;;;;;;;;;;;6.37;83.45;102046.59;5074065;28;19986;-75
2023/04/16 04:08:06;;;;;;;;;;;;;;;6.30;83.86;102038.66;5095077;28;19935;-73
2023/04/16 04:10:33;;;;;;;;;;;;;;;6.43;83.74;102045.75;5064446;28;20041;-73
2023/04/16 04:12:59;;;;;;;;;;;;;;;6.35;84.20;102041.50;5103616;28;20427;-73
2023/04/16 04:15:25;;;;;;;;;;;;;;;6.43;83.53;102051.09;5096294;28;19959;-73
2023/04/16 04:17:52;;;;;;;;;;;;;;;6.40;83.54;102049.66;5085670;28;19990;-73
2023/04/16 04:20:18;;;;;;;;;;;;;;;6.38;83.69;102051.72;5070131;28;19944;-73
2023/04/16 04:22:48;;;;;;;;;;;;;;;6.38;83.80;102048.25;5071989;28;19939;-74
2023/04/16 04:25:14;;;;;;;;;;;;;;;6.43;83.83;102053.75;5069969;28;20042;-73
2023/04/16 04:27:40;;;;;;;;;;;;;;;6.46;83.76;102062.13;5071153;28;19941;-74
2023/04/16 04:30:06;;;;;;;;;;;;;;;6.50;83.68;102062.53;5051817;28;20425;-73
2023/04/16 04:32:32;;;;;;;;;;;;;;;6.55;83.63;102065.38;5072162;28;19935;-73
2023/04/16 04:35:00;;;;;;;;;;;;;;;6.52;83.40;102065.81;5079878;28;19942;-74
2023/04/16 04:37:25;;;;;;;;;;;;;;;6.57;83.57;102063.34;5061551;28;20652;-73
2023/04/16 04:39:51;;;;;;;;;;;;;;;6.54;83.59;102071.72;5068191;28;19932;-75
2023/04/16 04:42:19;;;;;;;;;;;;;;;6.52;83.52;102071.94;5069286;28;19939;-75
2023/04/16 04:44:45;;;;;;;;;;;;;;;6.75;82.77;102081.28;5084180;28;19955;-74
2023/04/16 04:47:11;;;;;;;;;;;;;;;6.71;83.11;102072.09;5076469;28;20251;-74
2023/04/16 04:49:36;;;;;;;;;;;;;;;6.69;83.04;102076.78;5084439;28;20511;-73
2023/04/16 04:52:02;;;;;;;;;;;;;;;6.71;83.76;102074.75;5083014;28;19939;-74
2023/04/16 04:54:30;;;;;;;;;;;;;;;6.93;82.57;102077.94;5086391;28;19966;-74
2023/04/16 04:56:55;;;;;;;;;;;;;;;6.90;82.84;102075.69;5083287;28;20000;-74
2023/04/16 04:59:22;;;;;;;;;;;;;;;6.98;82.17;102080.78;5073812;28;19998;-73
2023/04/16 05:01:48;;;;;;;;;;;;;;;7.03;82.23;102083.59;5085811;28;19993;-74
2023/04/16 05:04:14;;;;;;;;;;;;;;;6.94;82.72;102080.38;5072868;28;19937;-76
2023/04/16 05:06:39;;;;;;;;;;;;;;;7.00;82.75;102081.38;5085941;28;19955;-74
2023/04/16 05:09:04;;;;;;;;;;;;;;;6.94;83.48;102074.22;5087340;28;20028;-76
2023/04/16 05:11:30;;;;;;;;;;;;;;;7.06;82.51;102083.19;5089644;28;19939;-74
2023/04/16 05:13:55;;;;;;;;;;;;;;;7.10;82.33;102084.38;5073077;28;19943;-74
2023/04/16 05:16:21;;;;;;;;;;;;;;;7.07;82.44;102080.31;5098572;28;19962;-74
2023/04/16 05:18:47;;;;;;;;;;;;;;;7.04;82.23;102085.22;5074586;28;19940;-75
2023/04/16 05:21:12;;;;;;;;;;;;;;;7.12;82.37;102087.66;5080449;28;19937;-73
2023/04/16 05:23:38;;;;;;;;;;;;;;;7.15;82.17;102094.41;5088424;28;20057;-75
2023/04/16 05:26:06;;;;;;;;;;;;;;;7.16;82.23;102099.50;5056613;28;19961;-74
2023/04/16 05:28:31;;;;;;;;;;;;;;;7.16;83.05;102099.50;5068066;28;20036;-74
2023/04/16 05:30:58;;;;;;;;;;;;;;;7.13;83.28;102105.28;5102801;28;19934;-74
2023/04/16 05:33:23;;;;;;;;;;;;;;;7.16;83.12;102112.84;5054494;28;19946;-74
2023/04/16 05:35:49;;;;;;;;;;;;;;;7.19;82.87;102108.94;5086437;28;20304;-74
2023/04/16 05:38:15;;;;;;;;;;;;;;;7.24;82.22;102107.25;5055210;28;20010;-74
2023/04/16 05:40:40;;;;;;;;;;;;;;;7.30;81.98;102111.72;5070595;28;21128;-74
2023/04/16 05:43:06;;;;;;;;;;;;;;;7.36;82.08;102100.22;5069692;28;19933;-74
2023/04/16 05:45:32;;;;;;;;;;;;;;;7.49;81.64;102111.81;5099292;28;20014;-74
2023/04/16 05:47:57;;;;;;;;;;;;;;;7.52;81.00;102122.03;5051941;28;19934;-75
2023/04/16 05:50:23;;;;;;;;;;;;;;;7.73;80.24;102121.72;5055485;28;19963;-74
2023/04/16 05:52:48;;;;;;;;;;;;;;;7.59;80.70;102130.84;5105921;28;19936;-72
2023/04/16 05:55:14;;;;;;;;;;;;;;;7.56;80.85;102132.06;5069637;28;19998;-74
2023/04/16 05:57:40;;;;;;;;;;;;;;;7.62;80.64;102131.22;5067267;28;19987;-74
2023/04/16 06:00:05;;;;;;;;;;;;;;;7.64;80.93;102133.66;5084338;28;20024;-73
2023/04/16 06:02:37;;;;;;;;;;;;;;;7.75;80.32;102132.97;5088474;28;19928;-74
2023/04/16 06:05:05;;;;;;;;;;;;;;;7.79;80.78;102131.50;5083614;28;20524;-73
2023/04/16 06:07:31;;;;;;;;;;;;;;;7.78;80.86;102135.19;5086502;28;19936;-74
2023/04/16 06:09:56;;;;;;;;;;;;;;;7.87;80.42;102139.25;5084683;28;19952;-73
2023/04/16 06:12:22;;;;;;;;;;;;;;;7.94;80.21;102137.34;5069507;28;20197;-73
2023/04/16 06:14:47;;;;;;;;;;;;;;;8.06;79.66;102136.59;5069555;28;20309;-74
2023/04/16 06:17:12;;;;;;;;;;;;;;;8.12;79.14;102133.06;5073261;28;20017;-74
2023/04/16 06:19:38;;;;;;;;;;;;;;;8.20;78.37;102138.97;5081445;28;19938;-73
2023/04/16 06:22:05;;;;;;;;;;;;;;;8.22;79.44;102136.06;5087132;28;20422;-73
2023/04/16 06:24:30;;;;;;;;;;;;;;;8.35;78.14;102124.44;5102856;28;20408;-74
2023/04/16 06:26:56;;;;;;;;;;;;;;;8.27;78.97;102128.22;5072370;28;19932;-73
2023/04/16 06:29:22;;;;;;;;;;;;;;;8.21;78.81;102140.59;5084716;28;19951;-74
2023/04/16 06:31:48;;;;;;;;;;;;;;;8.28;79.35;102140.53;5079710;28;20029;-73
2023/04/16 06:34:13;;;;;;;;;;;;;;;8.35;77.35;102143.97;5086267;28;20027;-75
2023/04/16 06:36:39;;;;;;;;;;;;;;;8.30;78.07;102142.97;5100098;28;20078;-75
2023/04/16 06:39:04;;;;;;;;;;;;;;;8.34;78.19;102147.66;5051395;28;19946;-71
2023/04/16 06:41:30;;;;;;;;;;;;;;;8.36;78.35;102148.28;5086645;28;20410;-73
2023/04/16 06:43:55;;;;;;;;;;;;;;;8.60;77.99;102153.78;5079486;28;19938;-76
2023/04/16 06:46:21;;;;;;;;;;;;;;;8.47;77.50;102149.41;5069051;28;19953;-72
2023/04/16 06:48:46;;;;;;;;;;;;;;;8.69;76.49;102147.94;5070219;28;20419;-76
2023/04/16 06:51:12;;;;;;;;;;;;;;;8.52;77.03;102149.53;5050107;28;19944;-70
2023/04/16 06:53:37;;;;;;;;;;;;;;;8.54;77.35;102154.69;5080478;28;20018;-75
2023/04/16 06:56:03;;;;;;;;;;;;;;;8.82;76.47;102152.31;5073202;28;19998;-71
2023/04/16 06:58:29;;;;;;;;;;;;;;;8.64;77.07;102144.28;5102174;28;19942;-75
2023/04/16 07:00:54;;;;;;;;;;;;;;;8.79;77.74;102144.72;5081870;28;19916;-76
2023/04/16 07:03:20;;;;;;;;;;;;;;;8.91;76.36;102150.97;5069010;28;19932;-75
2023/04/16 07:05:45;;;;;;;;;;;;;;;9.12;75.24;102151.53;5101398;28;19948;-74
2023/04/16 07:08:11;;;;;;;;;;;;;;;9.25;75.29;102151.38;5063825;28;19934;-75
2023/04/16 07:10:37;;;;;;;;;;;;;;;9.31;74.38;102155.81;5071848;28;19949;-74
2023/04/16 07:13:02;;;;;;;;;;;;;;;9.35;74.91;102157.00;5069327;28;19935;-71
2023/04/16 07:15:28;;;;;;;;;;;;;;;9.47;74.97;102163.19;5068706;28;20375;-75
2023/04/16 07:17:53;;;;;;;;;;;;;;;9.77;73.59;102170.38;5104851;27;19958;-74
2023/04/16 07:20:19;;;;;;;;;;;;;;;9.75;74.05;102162.56;5084951;28;19942;-74
2023/04/16 07:22:45;;;;;;;;;;;;;;;9.72;73.56;102164.91;5070552;28;19936;-73
2023/04/16 07:25:10;;;;;;;;;;;;;;;9.77;73.01;102173.06;5068003;28;19949;-74
2023/04/16 07:27:36;;;;;;;;;;;;;;;10.05;72.47;102170.53;5068442;28;19932;-73
2023/04/16 07:30:01;;;;;;;;;;;;;;;9.91;72.22;102171.81;5080789;28;19963;-74
2023/04/16 07:32:27;;;;;;;;;;;;;;;10.07;72.27;102176.47;5102809;28;19984;-73
2023/04/16 07:34:52;;;;;;;;;;;;;;;10.19;71.83;102176.50;5071536;28;20076;-73
2023/04/16 07:37:18;;;;;;;;;;;;;;;10.21;71.91;102182.41;5086307;28;19983;-73
2023/04/16 07:39:44;;;;;;;;;;;;;;;10.15;71.60;102171.81;5105141;28;19936;-74
2023/04/16 07:42:09;;;;;;;;;;;;;;;10.42;71.12;102181.06;5071264;28;19930;-74
2023/04/16 07:44:35;;;;;;;;;;;;;;;10.29;71.11;102189.31;5086706;28;19982;-75
2023/04/16 07:47:00;;;;;;;;;;;;;;;10.33;70.93;102174.44;5084365;28;19983;-73
2023/04/16 07:49:26;;;;;;;;;;;;;;;10.22;70.47;102185.91;5086562;28;19957;-74
2023/04/16 07:51:51;;;;;;;;;;;;;;;10.48;70.90;102188.16;5099061;28;19934;-75
2023/04/16 07:54:17;;;;;;;;;;;;;;;10.26;70.58;102189.78;5068269;28;19938;-74
2023/04/16 07:56:42;;;;;;;;;;;;;;;10.58;69.15;102185.72;5071432;28;19938;-75
2023/04/16 07:59:08;;;;;;;;;;;;;;;10.34;70.27;102197.47;5094954;28;19933;-74
2023/04/16 08:01:33;;;;;;;;;;;;;;;10.49;69.89;102199.69;5067289;28;19939;-75
2023/04/16 08:04:02;;;;;;;;;;;;;;;10.30;70.12;102199.81;5067387;28;20010;-74
2023/04/16 08:06:27;;;;;;;;;;;;;;;10.23;70.21;102196.44;5063920;28;20014;-75
2023/04/16 08:08:53;;;;;;;;;;;;;;;10.45;70.09;102191.31;5057688;28;19954;-75
2023/04/16 08:11:18;;;;;;;;;;;;;;;10.47;69.02;102201.78;5102323;28;20384;-75
2023/04/16 08:13:44;;;;;;;;;;;;;;;10.49;70.02;102200.50;5067123;28;19938;-74
2023/04/16 08:16:09;;;;;;;;;;;;;;;10.50;69.33;102202.16;5082787;28;20409;-73
2023/04/16 08:18:35;;;;;;;;;;;;;;;10.31;70.40;102203.31;5089337;28;19964;-74
2023/04/16 08:21:04;;;;;;;;;;;;;;;10.55;69.42;102210.28;5093070;28;19934;-75
2023/04/16 08:23:32;;;;;;;;;;;;;;;10.65;68.92;102207.03;5075299;28;19935;-74
2023/04/16 08:25:57;;;;;;;;;;;;;;;11.08;67.48;102211.16;5059329;28;20514;-74
2023/04/16 08:28:23;;;;;;;;;;;;;;;11.32;65.79;102209.22;5072531;28;19935;-73
2023/04/16 08:30:48;;;;;;;;;;;;;;;11.53;65.73;102216.63;5105743;28;20370;-75
2023/04/16 08:33:14;;;;;;;;;;;;;;;11.58;67.09;102222.06;5089073;28;20047;-74
2023/04/16 08:35:40;;;;;;;;;;;;;;;11.64;64.94;102226.47;5092589;28;20038;-75
2023/04/16 08:38:06;;;;;;;;;;;;;;;11.08;66.49;102229.94;5073773;28;19937;-77
2023/04/16 08:40:34;;;;;;;;;;;;;;;11.28;66.46;102229.53;5103920;28;19933;-75
2023/04/16 08:43:01;;;;;;;;;;;;;;;11.45;66.11;102225.06;5107868;28;20559;-74
2023/04/16 08:45:27;;;;;;;;;;;;;;;11.70;65.55;102238.91;5067606;28;20042;-74
2023/04/16 08:47:52;;;;;;;;;;;;;;;11.30;66.92;102227.41;5087333;28;20033;-74
2023/04/16 08:50:22;;;;;;;;;;;;;;;11.59;64.95;102242.50;5089145;28;19950;-74
2023/04/16 08:52:52;;;;;;;;;;;;;;;11.65;65.07;102238.84;5088013;28;19939;-75
2023/04/16 08:55:22;;;;;;;;;;;;;;;11.20;66.53;102247.63;5074226;28;19975;-75
2023/04/16 08:57:52;;;;;;;;;;;;;;;11.14;66.63;102239.69;5074393;28;19934;-76
2023/04/16 09:00:18;;;;;;;;;;;;;;;11.43;65.55;102238.69;5104135;28;20476;-75
2023/04/16 09:02:44;;;;;;;;;;;;;;;11.38;66.09;102232.41;5073298;28;20180;-73
2023/04/16 09:05:12;;;;;;;;;;;;;;;11.84;65.34;102244.03;5074032;28;19948;-75
2023/04/16 09:07:38;;;;;;;;;;;;;;;11.96;63.26;102244.78;5092020;28;20396;-76
2023/04/16 09:10:05;;;;;;;;;;;;;;;11.84;64.30;102244.03;5111779;28;20006;-75
2023/04/16 09:12:31;;;;;;;;;;;;;;;11.76;64.79;102240.66;5070927;28;20401;-75
2023/04/16 09:14:59;;;;;;;;;;;;;;;11.17;66.35;102240.03;5055524;28;19957;-75
2023/04/16 09:17:26;;;;;;;;;;;;;;;11.35;66.38;102249.78;5056340;28;20288;-75
2023/04/16 09:19:51;;;;;;;;;;;;;;;11.56;65.16;102253.69;5075894;28;20033;-74
2023/04/16 09:22:17;;;;;;;;;;;;;;;11.37;66.53;102250.34;5102978;28;19992;-73
2023/04/16 09:24:43;;;;;;;;;;;;;;;11.53;65.66;102250.69;5073343;28;20116;-76
2023/04/16 09:27:08;;;;;;;;;;;;;;;11.50;66.14;102249.28;5104898;28;19932;-76
2023/04/16 09:29:40;;;;;;;;;;;;;;;11.42;66.08;102246.97;5054871;28;20020;-75
2023/04/16 09:32:07;;;;;;;;;;;;;;;11.36;66.37;102253.28;5084730;28;20396;-74
2023/04/16 09:34:52;;;;;;;;;;;;;;;11.50;65.52;102257.31;5101405;28;20018;-74
2023/04/16 09:37:18;;;;;;;;;;;;;;;11.33;67.09;102264.50;5089806;28;20762;-73
2023/04/16 09:39:43;;;;;;;;;;;;;;;11.24;66.59;102260.53;5070892;28;19932;-73
2023/04/16 09:42:10;;;;;;;;;;;;;;;11.31;66.40;102271.94;5080632;28;20294;-73
2023/04/16 09:44:38;;;;;;;;;;;;;;;11.53;66.58;102264.91;5068642;28;20305;-74
2023/04/16 09:47:07;;;;;;;;;;;;;;;11.65;66.71;102272.88;5054068;28;20465;-74
2023/04/16 09:49:40;;;;;;;;;;;;;;;12.29;64.05;102274.34;5072192;28;19969;-73
2023/04/16 09:52:14;;;;;;;;;;;;;;;12.08;64.22;102277.75;5086271;28;20544;-73
2023/04/16 09:54:50;;;;;;;;;;;;;;;12.65;62.40;102277.59;5091763;28;19947;-74
2023/04/16 09:57:23;;;;;;;;;;;;;;;12.58;62.76;102276.97;5085008;28;19947;-75
2023/04/16 09:59:53;;;;;;;;;;;;;;;12.78;63.32;102285.31;5103836;28;19931;-74
2023/04/16 10:02:19;;;;;;;;;;;;;;;12.76;63.03;102278.56;5068085;28;19938;-73
2023/04/16 10:04:48;;;;;;;;;;;;;;;12.88;61.76;102287.38;5103735;28;20435;-73
2023/04/16 10:07:14;;;;;;;;;;;;;;;11.96;64.42;102287.75;5086064;28;19936;-75
2023/04/16 10:09:41;;;;;;;;;;;;;;;12.25;63.58;102283.94;5091353;28;19949;-74
2023/04/16 10:12:06;;;;;;;;;;;;;;;12.00;64.93;102281.66;5088186;28;19937;-73
2023/04/16 10:14:32;;;;;;;;;;;;;;;11.87;64.56;102281.94;5103875;28;19932;-74
2023/04/16 10:16:58;;;;;;;;;;;;;;;12.29;63.91;102285.09;5106757;28;20307;-75
2023/04/16 10:19:24;;;;;;;;;;;;;;;12.17;64.07;102281.66;5101937;28;19936;-74
2023/04/16 10:21:50;;;;;;;;;;;;;;;12.19;64.39;102289.47;5085652;28;20353;-74
2023/04/16 10:24:16;;;;;;;;;;;;;;;12.74;63.13;102292.28;5068015;28;19940;-74
2023/04/16 10:26:43;;;;;;;;;;;;;;;12.23;64.04;102298.69;5098775;28;19958;-73
2023/04/16 10:29:10;;;;;;;;;;;;;;;11.88;64.35;102288.13;5103898;27;20702;-74
2023/04/16 10:31:37;;;;;;;;;;;;;;;11.86;64.33;102295.63;5084995;28;19930;-73
2023/04/16 10:34:02;;;;;;;;;;;;;;;12.08;64.81;102298.44;5084044;28;19991;-73
2023/04/16 10:36:28;;;;;;;;;;;;;;;11.88;64.85;102301.56;5082157;28;19950;-74
2023/04/16 10:38:57;;;;;;;;;;;;;;;11.72;65.47;102301.25;5054607;28;20465;-73
2023/04/16 10:41:24;;;;;;;;;;;;;;;11.87;65.77;102302.63;5086946;28;20460;-73
2023/04/16 10:43:50;;;;;;;;;;;;;;;12.06;65.39;102306.72;5083718;28;19934;-72
2023/04/16 10:46:16;;;;;;;;;;;;;;;11.87;65.43;102302.63;5085175;28;19954;-73
2023/04/16 10:48:41;;;;;;;;;;;;;;;11.39;65.99;102309.16;5056130;28;20320;-72
2023/04/16 10:51:07;;;;;;;;;;;;;;;11.83;65.86;102304.13;5102842;27;19932;-73
2023/04/16 10:53:35;;;;;;;;;;;;;;;11.54;65.78;102306.78;5088704;28;20004;-74
2023/04/16 10:56:01;;;;;;;;;;;;;;;11.54;66.45;102312.16;5053478;28;19945;-74
2023/04/16 10:58:27;;;;;;;;;;;;;;;11.53;67.05;102323.94;5088181;28;19932;-72
2023/04/16 11:00:53;;;;;;;;;;;;;;;11.86;66.06;102325.16;5104553;28;20434;-74
2023/04/16 11:03:19;;;;;;;;;;;;;;;11.81;65.30;102309.75;5068817;28;19937;-73
2023/04/16 11:05:45;;;;;;;;;;;;;;;11.48;65.67;102315.78;5104972;28;19968;-73
2023/04/16 11:08:17;;;;;;;;;;;;;;;11.68;65.68;102321.56;5083732;28;19932;-73
2023/04/16 11:10:42;;;;;;;;;;;;;;;11.98;65.00;102323.22;5070664;28;19964;-73
2023/04/16 11:13:11;;;;;;;;;;;;;;;11.66;65.67;102329.03;5076904;28;19950;-73
2023/04/16 11:15:36;;;;;;;;;;;;;;;11.61;65.47;102322.75;5068945;28;20707;-73
2023/04/16 11:18:02;;;;;;;;;;;;;;;11.63;65.51;102320.63;5087952;28;19937;-73
2023/04/16 11:20:28;;;;;;;;;;;;;;;11.63;65.76;102326.81;5097746;27;19946;-74
2023/04/16 11:22:55;;;;;;;;;;;;;;;11.50;65.47;102329.75;5105800;28;20018;-73
2023/04/16 11:25:23;;;;;;;;;;;;;;;11.23;66.46;102323.28;5085815;28;19951;-73
2023/04/16 11:27:50;;;;;;;;;;;;;;;11.19;66.53;102336.34;5099381;28;20720;-75
2023/04/16 11:30:17;;;;;;;;;;;;;;;10.92;67.38;102333.34;5085652;27;21613;-74
2023/04/16 11:32:43;;;;;;;;;;;;;;;10.96;68.20;102337.16;5104618;28;19946;-73
2023/04/16 11:35:16;;;;;;;;;;;;;;;11.54;67.05;102330.94;5110319;27;20310;-74
2023/04/16 11:37:42;;;;;;;;;;;;;;;11.29;66.36;102328.50;5071227;28;19939;-74
2023/04/16 11:40:09;;;;;;;;;;;;;;;11.33;66.98;102334.25;5084073;28;19946;-74
2023/04/16 11:42:39;;;;;;;;;;;;;;;11.56;66.70;102328.81;5080957;28;20313;-75
2023/04/16 11:45:06;;;;;;;;;;;;;;;11.26;67.76;102325.50;5103097;28;19953;-75
2023/04/16 11:47:40;;;;;;;;;;;;;;;11.35;67.30;102332.94;5098763;28;19949;-73
2023/04/16 11:50:19;;;;;;;;;;;;;;;10.92;68.08;102333.34;5047577;28;19950;-74
2023/04/16 11:52:45;;;;;;;;;;;;;;;11.09;68.59;102341.47;5084735;28;20015;-73
2023/04/16 11:55:11;;;;;;;;;;;;;;;11.33;67.99;102350.34;5070190;28;20302;-75
2023/04/16 11:57:37;;;;;;;;;;;;;;;11.65;66.54;102343.50;5103568;28;20405;-74
2023/04/16 12:00:05;;;;;;;;;;;;;;;11.21;66.92;102345.78;5082246;28;20427;-73
2023/04/16 12:02:43;;;;;;;;;;;;;;;11.40;66.49;102356.38;5102458;28;19928;-71
2023/04/16 12:05:29;;;;;;;;;;;;;;;11.56;66.51;102349.47;5053150;28;19974;-73
2023/04/16 12:07:55;;;;;;;;;;;;;;;11.54;66.42;102357.75;5071466;28;20034;-73
2023/04/16 12:10:20;;;;;;;;;;;;;;;11.74;65.36;102354.69;5092806;28;19986;-74
2023/04/16 12:12:46;;;;;;;;;;;;;;;11.48;66.45;102364.88;5084769;28;19987;-73
2023/04/16 12:15:11;;;;;;;;;;;;;;;11.25;66.60;102364.91;5071480;28;20609;-73
2023/04/16 12:17:37;;;;;;;;;;;;;;;11.18;66.77;102358.88;5088722;28;19934;-73
2023/04/16 12:20:07;;;;;;;;;;;;;;;11.40;66.23;102372.47;5102529;28;19937;-73
2023/04/16 12:22:33;;;;;;;;;;;;;;;10.98;67.45;102369.94;5082878;28;19942;-72
2023/04/16 12:25:03;;;;;;;;;;;;;;;10.82;67.47;102370.59;5088833;28;20321;-73
2023/04/16 12:27:51;;;;;;;;;;;;;;;11.11;67.67;102374.25;5085908;28;20420;-74
2023/04/16 12:30:18;;;;;;;;;;;;;;;11.02;67.14;102375.63;5082843;28;20601;-73
2023/04/16 12:32:45;;;;;;;;;;;;;;;10.99;67.48;102366.19;5088791;28;19938;-74
2023/04/16 12:35:11;;;;;;;;;;;;;;;10.92;68.32;102370.84;5083785;28;19944;-74
2023/04/16 12:37:37;;;;;;;;;;;;;;;11.08;68.05;102364.78;5083567;28;19982;-74
2023/04/16 12:40:06;;;;;;;;;;;;;;;11.39;66.76;102378.91;5071444;28;20542;-74